BA454 EGLL-LPPT
Flight info
| Callsign | BA454 |
|---|---|
| Flight time | N/A |
| Altitude | 38000 |
| Route | GASGU N866 SAM M195 LORKU DCT POZOF DCT BALDA DCT ABUPI DCT XAMAX |
| Aircraft | B77W/H-SDE1E2E3FGHIJ2J3J4J5M1RWXY/LB1D1 |
Departure
| Time | 2026-05-04 22:53 |
|---|---|
| Airport | London Heathrow Airport (EGLL) |
Arrival
| Time | N/A |
|---|---|
| Airport | Lisbon Humberto Delgado Airport (LPPT) |
| Time | Latitude | Longitude | Altitude | Speed | Heading |
|---|---|---|---|---|---|
| 2026-05-04 22:27 | 51.46993 | -0.48595 | 96 ft | 0 kts | 269° |
| 2026-05-04 22:44 | 51.46993 | -0.48586 | 92 ft | 4 kts | 269° |
| 2026-05-04 22:45 | 51.46994 | -0.48542 | 92 ft | 4 kts | 269° |
| 2026-05-04 22:45 | 51.47003 | -0.48476 | 92 ft | 4 kts | 194° |
| 2026-05-04 22:45 | 51.47029 | -0.48474 | 91 ft | 3 kts | 179° |
| 2026-05-04 22:46 | 51.47033 | -0.48474 | 91 ft | 0 kts | 179° |
| 2026-05-04 22:49 | 51.47027 | -0.48474 | 91 ft | 8 kts | 179° |
| 2026-05-04 22:50 | 51.46945 | -0.48474 | 94 ft | 12 kts | 180° |
| 2026-05-04 22:50 | 51.46863 | -0.48473 | 94 ft | 12 kts | 179° |
| 2026-05-04 22:50 | 51.46780 | -0.48472 | 94 ft | 12 kts | 184° |
| 2026-05-04 22:50 | 51.46740 | -0.48554 | 94 ft | 9 kts | 275° |
| 2026-05-04 22:51 | 51.46741 | -0.48653 | 92 ft | 11 kts | 267° |
| 2026-05-04 22:51 | 51.46667 | -0.48750 | 95 ft | 12 kts | 185° |
| 2026-05-04 22:51 | 51.46586 | -0.48776 | 94 ft | 12 kts | 195° |
| 2026-05-04 22:51 | 51.46509 | -0.48764 | 97 ft | 12 kts | 142° |
| 2026-05-04 22:52 | 51.46482 | -0.48671 | 95 ft | 0 kts | 91° |
| 2026-05-04 22:52 | 51.46482 | -0.48670 | 95 ft | 2 kts | 91° |
| 2026-05-04 22:52 | 51.46481 | -0.48308 | 94 ft | 73 kts | 90° |
| 2026-05-04 22:52 | 51.46484 | -0.47058 | 95 ft | 148 kts | 89° |
| 2026-05-04 22:53 | 51.46466 | -0.45118 | 236 ft | 188 kts | 90° |
| 2026-05-04 22:53 | 51.46464 | -0.42954 | 963 ft | 193 kts | 90° |
| 2026-05-04 22:53 | 51.46257 | -0.40825 | 1737 ft | 201 kts | 117° |
| 2026-05-04 22:53 | 51.45414 | -0.38901 | 2019 ft | 225 kts | 127° |
| 2026-05-04 22:54 | 51.44433 | -0.36728 | 2463 ft | 249 kts | 126° |
| 2026-05-04 22:54 | 51.43345 | -0.34543 | 3246 ft | 254 kts | 139° |
| 2026-05-04 22:54 | 51.41818 | -0.33117 | 4125 ft | 257 kts | 163° |
| 2026-05-04 22:54 | 51.40045 | -0.32784 | 5025 ft | 261 kts | 187° |
| 2026-05-04 22:55 | 51.38326 | -0.33683 | 5757 ft | 262 kts | 211° |
| 2026-05-04 22:55 | 51.36906 | -0.35479 | 6026 ft | 267 kts | 221° |
| 2026-05-04 22:55 | 51.35515 | -0.37484 | 5995 ft | 269 kts | 221° |
| 2026-05-04 22:55 | 51.34130 | -0.39472 | 5996 ft | 266 kts | 221° |
| 2026-05-04 22:56 | 51.32754 | -0.41434 | 6019 ft | 265 kts | 221° |
| 2026-05-04 22:56 | 51.31455 | -0.43528 | 5999 ft | 266 kts | 231° |
| 2026-05-04 22:56 | 51.30471 | -0.46027 | 6018 ft | 268 kts | 242° |
| 2026-05-04 22:56 | 51.29743 | -0.48780 | 6507 ft | 269 kts | 251° |
| 2026-05-04 22:57 | 51.29207 | -0.51658 | 7443 ft | 270 kts | 253° |
| 2026-05-04 22:57 | 51.28699 | -0.54548 | 8375 ft | 271 kts | 253° |
| 2026-05-04 22:57 | 51.28183 | -0.57477 | 9265 ft | 276 kts | 253° |
| 2026-05-04 22:57 | 51.27630 | -0.60426 | 10113 ft | 279 kts | 252° |
| 2026-05-04 22:58 | 51.27046 | -0.63453 | 10691 ft | 295 kts | 252° |
| 2026-05-04 22:58 | 51.26407 | -0.66735 | 10899 ft | 323 kts | 252° |
| 2026-05-04 22:58 | 51.25710 | -0.70314 | 11127 ft | 351 kts | 252° |
| 2026-05-04 22:58 | 51.24968 | -0.74128 | 11769 ft | 365 kts | 252° |
| 2026-05-04 22:59 | 51.24207 | -0.78042 | 12723 ft | 372 kts | 251° |
| 2026-05-04 22:59 | 51.23436 | -0.82007 | 13802 ft | 377 kts | 251° |
| 2026-05-04 22:59 | 51.22656 | -0.86014 | 14787 ft | 380 kts | 251° |
| 2026-05-04 22:59 | 51.21875 | -0.90008 | 15782 ft | 383 kts | 251° |
| 2026-05-04 23:00 | 51.21047 | -0.94070 | 16721 ft | 384 kts | 247° |
| 2026-05-04 23:00 | 51.19682 | -0.97739 | 17521 ft | 390 kts | 228° |
| 2026-05-04 23:00 | 51.17729 | -1.00773 | 18331 ft | 393 kts | 223° |
| 2026-05-04 23:00 | 51.15721 | -1.03768 | 19157 ft | 397 kts | 223° |
| 2026-05-04 23:01 | 51.13697 | -1.06809 | 20063 ft | 399 kts | 223° |
| 2026-05-04 23:01 | 51.11703 | -1.09827 | 20853 ft | 403 kts | 223° |
| 2026-05-04 23:01 | 51.09661 | -1.12933 | 21557 ft | 408 kts | 223° |
| 2026-05-04 23:01 | 51.07606 | -1.16067 | 22379 ft | 411 kts | 223° |
| 2026-05-04 23:02 | 51.05539 | -1.19223 | 23230 ft | 414 kts | 223° |
| 2026-05-04 23:02 | 51.03451 | -1.22408 | 23928 ft | 418 kts | 223° |
| 2026-05-04 23:02 | 51.01346 | -1.25617 | 24537 ft | 422 kts | 223° |
| 2026-05-04 23:02 | 50.99228 | -1.28840 | 25245 ft | 423 kts | 223° |
| 2026-05-04 23:03 | 50.97085 | -1.32089 | 25811 ft | 428 kts | 222° |
| 2026-05-04 23:03 | 50.94816 | -1.35185 | 26329 ft | 433 kts | 217° |
| 2026-05-04 23:03 | 50.92332 | -1.37930 | 26891 ft | 437 kts | 213° |
| 2026-05-04 23:03 | 50.89774 | -1.40553 | 27461 ft | 440 kts | 213° |
| 2026-05-04 23:04 | 50.87194 | -1.43203 | 27992 ft | 443 kts | 213° |
| 2026-05-04 23:04 | 50.84600 | -1.45879 | 28515 ft | 447 kts | 213° |
| 2026-05-04 23:04 | 50.81987 | -1.48583 | 29014 ft | 450 kts | 213° |
| 2026-05-04 23:04 | 50.80248 | -1.50386 | 29314 ft | 452 kts | 213° |
| 2026-05-04 23:05 | 50.77600 | -1.53132 | 29764 ft | 455 kts | 213° |
| 2026-05-04 23:05 | 50.74954 | -1.55876 | 30290 ft | 455 kts | 213° |
| 2026-05-04 23:05 | 50.72305 | -1.58620 | 30823 ft | 454 kts | 213° |
| 2026-05-04 23:05 | 50.69667 | -1.61349 | 31311 ft | 453 kts | 213° |
| 2026-05-04 23:06 | 50.67025 | -1.64077 | 31770 ft | 453 kts | 213° |
| 2026-05-04 23:06 | 50.64384 | -1.66799 | 32220 ft | 453 kts | 213° |
| 2026-05-04 23:06 | 50.60896 | -1.70390 | 32828 ft | 453 kts | 213° |
| 2026-05-04 23:06 | 50.59114 | -1.72222 | 33140 ft | 453 kts | 213° |
| 2026-05-04 23:07 | 50.56477 | -1.74932 | 33574 ft | 452 kts | 213° |
| 2026-05-04 23:07 | 50.53839 | -1.77636 | 34017 ft | 452 kts | 213° |
| 2026-05-04 23:07 | 50.51205 | -1.80329 | 34346 ft | 453 kts | 212° |
| 2026-05-04 23:07 | 50.48553 | -1.83023 | 34641 ft | 454 kts | 212° |
| 2026-05-04 23:08 | 50.45927 | -1.85685 | 34906 ft | 456 kts | 212° |
| 2026-05-04 23:08 | 50.43239 | -1.88405 | 34951 ft | 461 kts | 212° |
| 2026-05-04 23:08 | 50.40540 | -1.91134 | 35237 ft | 461 kts | 212° |
| 2026-05-04 23:08 | 50.37845 | -1.93857 | 35600 ft | 459 kts | 212° |
| 2026-05-04 23:09 | 50.35167 | -1.96562 | 35954 ft | 458 kts | 212° |
| 2026-05-04 23:09 | 50.32487 | -1.99265 | 36284 ft | 458 kts | 212° |
| 2026-05-04 23:09 | 50.29799 | -2.01973 | 36572 ft | 459 kts | 212° |
| 2026-05-04 23:09 | 50.27142 | -2.04646 | 36829 ft | 460 kts | 212° |
| 2026-05-04 23:10 | 50.24446 | -2.07352 | 37077 ft | 461 kts | 212° |
| 2026-05-04 23:10 | 50.21740 | -2.10029 | 37348 ft | 461 kts | 212° |
| 2026-05-04 23:10 | 50.19012 | -2.12687 | 37618 ft | 462 kts | 211° |
| 2026-05-04 23:10 | 50.16275 | -2.15341 | 37837 ft | 463 kts | 211° |
| 2026-05-04 23:11 | 50.13528 | -2.18002 | 37945 ft | 467 kts | 211° |
| 2026-05-04 23:11 | 50.10762 | -2.20684 | 38005 ft | 469 kts | 212° |
| 2026-05-04 23:11 | 50.05236 | -2.26044 | 38001 ft | 465 kts | 211° |
| 2026-05-04 23:12 | 49.99729 | -2.31377 | 38214 ft | 469 kts | 212° |
| 2026-05-04 23:12 | 49.94161 | -2.36701 | 38138 ft | 467 kts | 209° |
| 2026-05-04 23:13 | 49.88348 | -2.41033 | 38144 ft | 460 kts | 204° |
| 2026-05-04 23:13 | 49.82521 | -2.45033 | 38138 ft | 460 kts | 204° |
| 2026-05-04 23:14 | 49.76671 | -2.49064 | 38135 ft | 460 kts | 204° |
| 2026-05-04 23:14 | 49.70816 | -2.53121 | 38131 ft | 461 kts | 204° |
| 2026-05-04 23:15 | 49.64951 | -2.57187 | 38131 ft | 462 kts | 204° |
| 2026-05-04 23:15 | 49.59062 | -2.61261 | 38083 ft | 465 kts | 204° |
| 2026-05-04 23:16 | 49.53142 | -2.65344 | 38003 ft | 467 kts | 204° |
| 2026-05-04 23:16 | 49.47208 | -2.69425 | 37998 ft | 467 kts | 204° |
| 2026-05-04 23:17 | 49.41311 | -2.73469 | 37997 ft | 467 kts | 204° |
| 2026-05-04 23:17 | 49.35376 | -2.77529 | 37996 ft | 467 kts | 204° |
| 2026-05-04 23:18 | 49.29438 | -2.81579 | 37999 ft | 466 kts | 204° |
| 2026-05-04 23:18 | 49.23508 | -2.85614 | 38004 ft | 466 kts | 204° |
| 2026-05-04 23:19 | 49.17580 | -2.89637 | 37996 ft | 466 kts | 204° |
| 2026-05-04 23:19 | 49.11677 | -2.93633 | 38008 ft | 466 kts | 204° |
| 2026-05-04 23:20 | 49.05752 | -2.97633 | 38007 ft | 466 kts | 204° |
| 2026-05-04 23:20 | 48.99781 | -3.01653 | 38012 ft | 474 kts | 203° |
| 2026-05-04 23:21 | 48.93677 | -3.05750 | 38015 ft | 483 kts | 203° |
| 2026-05-04 23:21 | 48.87510 | -3.09881 | 38009 ft | 484 kts | 203° |
| 2026-05-04 23:22 | 48.81390 | -3.13971 | 37992 ft | 475 kts | 203° |
| 2026-05-04 23:22 | 48.75350 | -3.17994 | 38008 ft | 474 kts | 202° |
| 2026-05-04 23:23 | 48.69310 | -3.22007 | 38007 ft | 474 kts | 202° |
| 2026-05-04 23:23 | 48.63257 | -3.26017 | 38009 ft | 475 kts | 202° |
| 2026-05-04 23:24 | 48.57227 | -3.30002 | 38006 ft | 476 kts | 202° |
| 2026-05-04 23:24 | 48.51134 | -3.34018 | 37999 ft | 477 kts | 202° |
| 2026-05-04 23:25 | 48.45042 | -3.38024 | 38004 ft | 478 kts | 202° |
| 2026-05-04 23:25 | 48.38899 | -3.42051 | 38016 ft | 486 kts | 202° |
| 2026-05-04 23:26 | 48.32630 | -3.46150 | 38012 ft | 496 kts | 202° |
| 2026-05-04 23:26 | 48.26251 | -3.50310 | 38004 ft | 503 kts | 202° |
| 2026-05-04 23:27 | 48.19824 | -3.54491 | 37997 ft | 505 kts | 202° |
| 2026-05-04 23:27 | 48.13373 | -3.58676 | 37995 ft | 505 kts | 202° |
| 2026-05-04 23:28 | 48.06913 | -3.62854 | 37993 ft | 505 kts | 202° |
| 2026-05-04 23:28 | 48.00479 | -3.67006 | 37991 ft | 503 kts | 202° |
| 2026-05-04 23:29 | 47.94055 | -3.71138 | 37993 ft | 502 kts | 202° |
| 2026-05-04 23:29 | 47.87691 | -3.75221 | 37992 ft | 500 kts | 202° |
| 2026-05-04 23:30 | 47.81305 | -3.79307 | 37989 ft | 498 kts | 202° |
| 2026-05-04 23:30 | 47.74938 | -3.83370 | 37988 ft | 497 kts | 202° |
| 2026-05-04 23:31 | 47.68580 | -3.87417 | 37989 ft | 497 kts | 202° |
| 2026-05-04 23:31 | 47.62226 | -3.91450 | 37993 ft | 496 kts | 202° |
| 2026-05-04 23:32 | 47.55871 | -3.95473 | 37993 ft | 496 kts | 202° |
| 2026-05-04 23:32 | 47.49558 | -3.99459 | 37990 ft | 497 kts | 202° |
| 2026-05-04 23:33 | 47.43190 | -4.03469 | 37993 ft | 497 kts | 202° |
| 2026-05-04 23:33 | 47.36818 | -4.07472 | 37993 ft | 498 kts | 202° |
| 2026-05-04 23:34 | 47.30434 | -4.11471 | 37995 ft | 499 kts | 202° |
| 2026-05-04 23:34 | 47.24041 | -4.15466 | 37996 ft | 499 kts | 202° |
| 2026-05-04 23:35 | 47.17630 | -4.19461 | 37996 ft | 500 kts | 202° |
| 2026-05-04 23:35 | 47.11214 | -4.23451 | 37993 ft | 500 kts | 202° |
| 2026-05-04 23:36 | 47.04793 | -4.27415 | 37997 ft | 501 kts | 201° |
| 2026-05-04 23:36 | 46.98269 | -4.31061 | 37999 ft | 501 kts | 199° |
| 2026-05-04 23:37 | 46.91761 | -4.34534 | 37997 ft | 501 kts | 199° |
| 2026-05-04 23:37 | 46.85212 | -4.38056 | 38000 ft | 501 kts | 200° |
| 2026-05-04 23:38 | 46.78676 | -4.41608 | 38001 ft | 501 kts | 200° |
| 2026-05-04 23:38 | 46.72138 | -4.45168 | 37998 ft | 501 kts | 200° |
| 2026-05-04 23:39 | 46.65598 | -4.48720 | 38000 ft | 501 kts | 200° |
| 2026-05-04 23:39 | 46.59051 | -4.52263 | 38003 ft | 502 kts | 200° |
| 2026-05-04 23:40 | 46.52506 | -4.55795 | 38003 ft | 502 kts | 200° |
| 2026-05-04 23:40 | 46.45961 | -4.59317 | 38004 ft | 502 kts | 200° |
| 2026-05-04 23:41 | 46.39407 | -4.62836 | 38004 ft | 502 kts | 200° |
| 2026-05-04 23:41 | 46.32857 | -4.66343 | 38009 ft | 502 kts | 200° |
| 2026-05-04 23:42 | 46.26338 | -4.69825 | 38008 ft | 502 kts | 200° |
| 2026-05-04 23:42 | 46.19773 | -4.73322 | 38009 ft | 502 kts | 200° |
| 2026-05-04 23:43 | 46.13219 | -4.76805 | 38009 ft | 502 kts | 200° |
| 2026-05-04 23:43 | 46.06665 | -4.80279 | 38004 ft | 502 kts | 200° |
| 2026-05-04 23:44 | 46.00108 | -4.83746 | 38009 ft | 502 kts | 200° |
| 2026-05-04 23:44 | 45.93592 | -4.87182 | 38007 ft | 502 kts | 200° |
| 2026-05-04 23:45 | 45.87040 | -4.90628 | 38008 ft | 502 kts | 200° |
| 2026-05-04 23:45 | 45.80478 | -4.94072 | 38007 ft | 501 kts | 200° |
| 2026-05-04 23:46 | 45.73923 | -4.97502 | 38009 ft | 501 kts | 200° |
| 2026-05-04 23:46 | 45.67361 | -5.00928 | 38007 ft | 501 kts | 200° |
| 2026-05-04 23:47 | 45.60801 | -5.04345 | 38009 ft | 501 kts | 200° |
| 2026-05-04 23:47 | 45.54284 | -5.07730 | 38009 ft | 501 kts | 200° |
| 2026-05-04 23:48 | 45.47731 | -5.11126 | 38007 ft | 501 kts | 200° |
| 2026-05-04 23:48 | 45.41177 | -5.14514 | 38008 ft | 501 kts | 200° |
| 2026-05-04 23:49 | 45.34619 | -5.17896 | 38008 ft | 501 kts | 200° |
| 2026-05-04 23:49 | 45.28065 | -5.21267 | 38010 ft | 501 kts | 200° |
| 2026-05-04 23:50 | 45.21513 | -5.24629 | 38010 ft | 501 kts | 200° |
| 2026-05-04 23:50 | 45.14958 | -5.27984 | 38010 ft | 501 kts | 200° |
| 2026-05-04 23:51 | 45.08442 | -5.31311 | 38009 ft | 501 kts | 200° |
| 2026-05-04 23:51 | 45.01885 | -5.34652 | 38012 ft | 501 kts | 200° |
| 2026-05-04 23:52 | 44.95324 | -5.37986 | 38019 ft | 501 kts | 200° |
| 2026-05-04 23:52 | 44.89822 | -5.40775 | 38016 ft | 501 kts | 200° |
| 2026-05-04 23:53 | 44.83255 | -5.44097 | 38014 ft | 502 kts | 200° |
| 2026-05-04 23:53 | 44.76678 | -5.47417 | 38016 ft | 502 kts | 200° |
| 2026-05-04 23:54 | 44.70146 | -5.50706 | 38018 ft | 502 kts | 200° |
| 2026-05-04 23:54 | 44.63565 | -5.54013 | 38016 ft | 502 kts | 200° |
| 2026-05-04 23:55 | 44.57085 | -5.57622 | 38019 ft | 501 kts | 205° |
| 2026-05-04 23:56 | 44.47521 | -5.63590 | 38018 ft | 501 kts | 205° |
| 2026-05-04 23:56 | 44.41193 | -5.67523 | 38017 ft | 501 kts | 205° |
| 2026-05-04 23:57 | 44.34803 | -5.71457 | 38020 ft | 501 kts | 205° |
| 2026-05-04 23:57 | 44.28415 | -5.75371 | 38022 ft | 501 kts | 205° |
| 2026-05-04 23:58 | 44.22025 | -5.79276 | 38018 ft | 501 kts | 205° |
| 2026-05-04 23:58 | 44.15648 | -5.83166 | 38022 ft | 500 kts | 205° |
| 2026-05-04 23:59 | 44.09264 | -5.87053 | 38029 ft | 500 kts | 205° |
| 2026-05-04 23:59 | 44.02927 | -5.90902 | 38026 ft | 500 kts | 205° |
| 2026-05-05 00:00 | 43.96549 | -5.94766 | 38023 ft | 500 kts | 205° |
| 2026-05-05 00:00 | 43.90163 | -5.98625 | 38035 ft | 499 kts | 205° |
| 2026-05-05 00:01 | 43.83789 | -6.02469 | 38030 ft | 499 kts | 205° |
| 2026-05-05 00:01 | 43.77410 | -6.06307 | 38040 ft | 499 kts | 205° |
| 2026-05-05 00:02 | 43.71076 | -6.10108 | 38043 ft | 499 kts | 205° |
| 2026-05-05 00:02 | 43.64694 | -6.13930 | 38041 ft | 499 kts | 205° |
| 2026-05-05 00:03 | 43.58318 | -6.17739 | 38048 ft | 499 kts | 205° |
| 2026-05-05 00:03 | 43.51949 | -6.21536 | 38058 ft | 499 kts | 205° |
| 2026-05-05 00:04 | 43.45562 | -6.25334 | 38050 ft | 499 kts | 205° |
| 2026-05-05 00:04 | 43.39183 | -6.29119 | 38047 ft | 499 kts | 205° |
| 2026-05-05 00:05 | 43.32796 | -6.32900 | 38051 ft | 499 kts | 205° |
| 2026-05-05 00:05 | 43.26411 | -6.36670 | 38056 ft | 499 kts | 205° |
| 2026-05-05 00:06 | 43.20070 | -6.40406 | 38057 ft | 499 kts | 205° |
| 2026-05-05 00:06 | 43.13684 | -6.44160 | 38058 ft | 499 kts | 205° |
| 2026-05-05 00:07 | 43.07306 | -6.47902 | 38063 ft | 499 kts | 206° |
| 2026-05-05 00:07 | 43.00914 | -6.51641 | 38065 ft | 498 kts | 206° |
| 2026-05-05 00:08 | 42.94538 | -6.55365 | 38070 ft | 498 kts | 206° |
| 2026-05-05 00:08 | 42.88155 | -6.59085 | 38071 ft | 498 kts | 206° |
| 2026-05-05 00:09 | 42.81810 | -6.62772 | 38064 ft | 498 kts | 206° |
| 2026-05-05 00:09 | 42.75440 | -6.66466 | 38062 ft | 498 kts | 206° |
| 2026-05-05 00:10 | 42.69068 | -6.70153 | 38081 ft | 497 kts | 206° |
| 2026-05-05 00:10 | 42.62702 | -6.73830 | 38078 ft | 497 kts | 206° |
| 2026-05-05 00:11 | 42.56336 | -6.77497 | 38074 ft | 497 kts | 206° |
| 2026-05-05 00:11 | 42.50008 | -6.81134 | 38081 ft | 496 kts | 206° |
| 2026-05-05 00:12 | 42.43640 | -6.84787 | 38078 ft | 497 kts | 206° |
| 2026-05-05 00:12 | 42.37275 | -6.88429 | 38082 ft | 496 kts | 206° |
| 2026-05-05 00:13 | 42.30912 | -6.92063 | 38090 ft | 497 kts | 206° |
| 2026-05-05 00:13 | 42.24541 | -6.95693 | 38086 ft | 497 kts | 206° |
| 2026-05-05 00:14 | 42.18176 | -6.99312 | 38091 ft | 496 kts | 206° |
| 2026-05-05 00:14 | 42.11801 | -7.02928 | 38087 ft | 496 kts | 206° |
| 2026-05-05 00:15 | 42.05437 | -7.06530 | 38094 ft | 496 kts | 206° |
| 2026-05-05 00:15 | 41.99075 | -7.10124 | 38089 ft | 496 kts | 206° |
| 2026-05-05 00:16 | 41.92712 | -7.13711 | 38089 ft | 495 kts | 206° |
| 2026-05-05 00:16 | 41.86355 | -7.17286 | 38091 ft | 495 kts | 206° |
| 2026-05-05 00:17 | 41.80006 | -7.20851 | 38093 ft | 495 kts | 206° |
| 2026-05-05 00:17 | 41.73725 | -7.24580 | 38092 ft | 491 kts | 212° |
| 2026-05-05 00:18 | 41.67861 | -7.29120 | 38089 ft | 489 kts | 214° |
| 2026-05-05 00:18 | 41.62004 | -7.33736 | 38108 ft | 489 kts | 214° |
| 2026-05-05 00:19 | 41.56130 | -7.38321 | 38096 ft | 488 kts | 214° |
| 2026-05-05 00:19 | 41.50247 | -7.42874 | 38100 ft | 488 kts | 214° |
| 2026-05-05 00:20 | 41.44397 | -7.47383 | 38097 ft | 488 kts | 214° |
| 2026-05-05 00:20 | 41.38517 | -7.51906 | 38089 ft | 488 kts | 214° |
| 2026-05-05 00:21 | 41.32631 | -7.56427 | 38096 ft | 487 kts | 214° |
| 2026-05-05 00:21 | 41.26756 | -7.60931 | 38096 ft | 487 kts | 214° |
| 2026-05-05 00:22 | 41.20890 | -7.65418 | 38108 ft | 487 kts | 214° |
| 2026-05-05 00:22 | 41.15018 | -7.69901 | 38104 ft | 487 kts | 214° |
| 2026-05-05 00:23 | 41.09147 | -7.74372 | 38122 ft | 486 kts | 214° |
| 2026-05-05 00:23 | 41.03280 | -7.78833 | 38102 ft | 486 kts | 214° |
| 2026-05-05 00:24 | 40.97424 | -7.83274 | 38106 ft | 485 kts | 214° |
| 2026-05-05 00:24 | 40.91614 | -7.87672 | 38116 ft | 483 kts | 214° |
| 2026-05-05 00:25 | 40.85781 | -7.92078 | 38112 ft | 482 kts | 215° |
| 2026-05-05 00:25 | 40.79961 | -7.96467 | 38120 ft | 480 kts | 215° |
| 2026-05-05 00:26 | 40.74165 | -8.00827 | 38119 ft | 479 kts | 215° |
| 2026-05-05 00:26 | 40.68412 | -8.05147 | 38124 ft | 477 kts | 215° |
| 2026-05-05 00:27 | 40.62647 | -8.09467 | 38114 ft | 476 kts | 215° |
| 2026-05-05 00:27 | 40.56896 | -8.13768 | 38122 ft | 474 kts | 215° |
| 2026-05-05 00:28 | 40.51173 | -8.18041 | 38118 ft | 472 kts | 215° |
| 2026-05-05 00:28 | 40.45455 | -8.22300 | 38122 ft | 472 kts | 215° |
| 2026-05-05 00:29 | 40.39810 | -8.26494 | 37913 ft | 463 kts | 215° |
| 2026-05-05 00:29 | 40.37031 | -8.28551 | 37469 ft | 454 kts | 216° |
| 2026-05-05 00:29 | 40.34274 | -8.30595 | 36573 ft | 456 kts | 216° |
| 2026-05-05 00:29 | 40.31504 | -8.32652 | 35611 ft | 459 kts | 217° |
| 2026-05-05 00:30 | 40.28721 | -8.34718 | 34696 ft | 460 kts | 217° |
| 2026-05-05 00:30 | 40.25930 | -8.36784 | 33784 ft | 460 kts | 217° |
| 2026-05-05 00:30 | 40.23150 | -8.38837 | 32904 ft | 456 kts | 218° |
| 2026-05-05 00:30 | 40.20397 | -8.40867 | 32013 ft | 454 kts | 218° |
| 2026-05-05 00:31 | 40.17668 | -8.42875 | 31399 ft | 446 kts | 218° |
| 2026-05-05 00:31 | 40.14988 | -8.44847 | 30772 ft | 439 kts | 218° |
| 2026-05-05 00:31 | 40.12345 | -8.46792 | 30188 ft | 433 kts | 218° |
| 2026-05-05 00:31 | 40.09736 | -8.48715 | 29512 ft | 427 kts | 218° |
| 2026-05-05 00:32 | 40.07191 | -8.50583 | 29366 ft | 412 kts | 218° |
| 2026-05-05 00:32 | 40.04757 | -8.52364 | 29176 ft | 399 kts | 219° |
| 2026-05-05 00:32 | 40.02390 | -8.54132 | 28950 ft | 385 kts | 221° |
| 2026-05-05 00:32 | 40.00174 | -8.56003 | 28622 ft | 374 kts | 223° |
| 2026-05-05 00:33 | 39.98055 | -8.57913 | 28297 ft | 368 kts | 224° |
| 2026-05-05 00:33 | 39.95969 | -8.59834 | 28001 ft | 367 kts | 224° |
| 2026-05-05 00:33 | 39.93868 | -8.61773 | 27683 ft | 372 kts | 224° |
| 2026-05-05 00:33 | 39.91741 | -8.63723 | 27349 ft | 375 kts | 224° |
| 2026-05-05 00:34 | 39.89600 | -8.65665 | 27025 ft | 374 kts | 224° |
| 2026-05-05 00:34 | 39.87461 | -8.67590 | 26713 ft | 373 kts | 224° |
| 2026-05-05 00:34 | 39.85326 | -8.69502 | 26387 ft | 372 kts | 223° |
| 2026-05-05 00:34 | 39.83196 | -8.71407 | 26072 ft | 371 kts | 223° |
| 2026-05-05 00:35 | 39.82475 | -8.72050 | 25967 ft | 371 kts | 223° |